createdAt,value
2022-09-14T00:01:47.433Z,16.72
2022-09-14T00:04:20.490Z,16.72
2022-09-14T00:06:49.608Z,16.72
2022-09-14T00:09:22.926Z,16.71
2022-09-14T00:11:52.035Z,16.71
2022-09-14T00:14:20.441Z,16.71
2022-09-14T00:16:49.944Z,16.70
2022-09-14T00:19:25.044Z,16.68
2022-09-14T00:21:55.972Z,16.67
2022-09-14T00:24:30.978Z,16.66
2022-09-14T00:27:03.047Z,16.65
2022-09-14T00:29:33.454Z,16.65
2022-09-14T00:32:02.219Z,16.64
2022-09-14T00:34:30.623Z,16.64
2022-09-14T00:36:58.860Z,16.65
2022-09-14T00:39:28.515Z,16.65
2022-09-14T00:41:56.970Z,16.66
2022-09-14T00:44:25.114Z,16.66
2022-09-14T00:46:57.266Z,16.67
2022-09-14T00:49:27.135Z,16.66
2022-09-14T00:52:22.487Z,16.66
2022-09-14T00:54:58.596Z,16.66
2022-09-14T00:57:33.787Z,16.63
2022-09-14T01:00:02.437Z,16.62
2022-09-14T01:02:30.698Z,16.59
2022-09-14T01:04:59.054Z,16.58
2022-09-14T01:07:52.160Z,16.58
2022-09-14T01:10:45.012Z,16.58
2022-09-14T01:13:53.937Z,16.58
2022-09-14T01:16:42.664Z,16.60
2022-09-14T01:19:23.794Z,16.62
2022-09-14T01:21:56.886Z,16.65
2022-09-14T01:24:46.237Z,16.66
2022-09-14T01:27:24.093Z,16.67
2022-09-14T01:30:10.903Z,16.68
2022-09-14T01:32:45.198Z,16.68
2022-09-14T01:35:33.630Z,16.69
2022-09-14T01:38:10.587Z,16.68
2022-09-14T01:40:47.266Z,16.68
2022-09-14T01:43:30.065Z,16.68
2022-09-14T01:46:05.520Z,16.67
2022-09-14T01:48:45.464Z,16.67
2022-09-14T01:51:20.329Z,16.67
2022-09-14T01:53:54.969Z,16.67
2022-09-14T01:56:32.413Z,16.67
2022-09-14T01:59:11.039Z,16.67
2022-09-14T02:02:03.056Z,16.67
2022-09-14T02:04:41.519Z,16.68
2022-09-14T02:07:11.111Z,16.67
2022-09-14T02:09:40.365Z,16.67
2022-09-14T02:12:09.032Z,16.67
2022-09-14T02:14:37.787Z,16.65
2022-09-14T02:17:08.492Z,16.64
2022-09-14T02:19:44.123Z,16.62
2022-09-14T02:22:13.053Z,16.61
2022-09-14T02:24:42.022Z,16.60
2022-09-14T02:27:10.297Z,16.59
2022-09-14T02:29:38.928Z,16.55
2022-09-14T02:32:41.365Z,16.52
2022-09-14T02:35:35.511Z,16.48
2022-09-14T02:38:28.293Z,16.44
2022-09-14T02:41:17.769Z,16.40
2022-09-14T02:44:06.874Z,16.36
2022-09-14T02:46:43.958Z,16.30
2022-09-14T02:49:37.417Z,16.23
2022-09-14T02:52:31.155Z,16.17
2022-09-14T02:55:13.278Z,16.13
2022-09-14T02:58:05.667Z,16.10
2022-09-14T03:00:40.489Z,16.07
2022-09-14T03:03:12.125Z,16.05
2022-09-14T03:05:44.427Z,16.04
2022-09-14T03:08:12.882Z,16.03
2022-09-14T03:10:44.894Z,16.02
2022-09-14T03:13:13.134Z,16.00
2022-09-14T03:15:41.893Z,15.98
2022-09-14T03:18:14.289Z,15.97
2022-09-14T03:20:43.556Z,15.96
2022-09-14T03:23:13.786Z,15.94
2022-09-14T03:25:44.295Z,15.93
2022-09-14T03:28:13.006Z,15.92
2022-09-14T03:30:42.564Z,15.90
2022-09-14T03:33:12.605Z,15.87
2022-09-14T03:35:41.296Z,15.84
2022-09-14T03:38:09.653Z,15.82
2022-09-14T03:40:39.100Z,15.80
2022-09-14T03:43:07.395Z,15.81
2022-09-14T03:45:37.258Z,15.80
2022-09-14T03:48:06.206Z,15.78
2022-09-14T03:50:34.565Z,15.76
2022-09-14T03:53:05.022Z,15.75
2022-09-14T03:55:33.440Z,15.73
2022-09-14T03:58:01.740Z,15.70
2022-09-14T04:00:30.077Z,15.66
2022-09-14T04:03:00.952Z,15.64
2022-09-14T04:05:29.311Z,15.60
2022-09-14T04:07:57.529Z,15.57
2022-09-14T04:10:26.013Z,15.55
2022-09-14T04:12:54.305Z,15.53
2022-09-14T04:15:22.553Z,15.51
2022-09-14T04:17:51.424Z,15.50
2022-09-14T04:20:20.257Z,15.48
2022-09-14T04:22:48.888Z,15.47
2022-09-14T04:25:17.309Z,15.46
2022-09-14T04:27:54.996Z,15.47
2022-09-14T04:30:32.750Z,15.47
2022-09-14T04:33:01.009Z,15.46
2022-09-14T04:35:29.219Z,15.46
2022-09-14T04:37:57.446Z,15.47
2022-09-14T04:40:26.260Z,15.47
2022-09-14T04:42:55.051Z,15.48
2022-09-14T04:45:23.287Z,15.49
2022-09-14T04:47:51.526Z,15.50
2022-09-14T04:50:19.676Z,15.52
2022-09-14T04:52:47.885Z,15.54
2022-09-14T04:55:16.335Z,15.56
2022-09-14T04:57:44.588Z,15.59
2022-09-14T05:00:13.393Z,15.62
2022-09-14T05:02:43.042Z,15.68
2022-09-14T05:05:11.459Z,15.73
2022-09-14T05:07:39.639Z,15.80
2022-09-14T05:10:08.558Z,15.86
2022-09-14T05:12:36.794Z,15.91
2022-09-14T05:15:05.606Z,15.96
2022-09-14T05:17:35.597Z,16.01
2022-09-14T05:20:04.019Z,16.07
2022-09-14T05:22:32.252Z,16.13
2022-09-14T05:25:00.606Z,16.20
2022-09-14T05:27:28.903Z,16.25
2022-09-14T05:29:57.130Z,16.31
2022-09-14T05:32:25.398Z,16.35
2022-09-14T05:34:53.598Z,16.39
2022-09-14T05:37:21.855Z,16.44
2022-09-14T05:39:50.385Z,16.50
2022-09-14T05:42:18.705Z,16.56
2022-09-14T05:44:46.957Z,16.61
2022-09-14T05:47:15.261Z,16.66
2022-09-14T05:49:43.574Z,16.71
2022-09-14T05:52:11.699Z,16.74
2022-09-14T05:54:40.011Z,16.77
2022-09-14T05:57:08.187Z,16.80
2022-09-14T05:59:36.562Z,16.84
2022-09-14T06:02:04.988Z,16.88
2022-09-14T06:04:33.312Z,16.92
2022-09-14T06:07:18.006Z,17.00
2022-09-14T06:09:47.898Z,17.08
2022-09-14T06:12:16.128Z,17.16
2022-09-14T06:14:44.379Z,17.22
2022-09-14T06:17:12.687Z,17.26
2022-09-14T06:19:40.997Z,17.30
2022-09-14T06:22:09.178Z,17.35
2022-09-14T06:24:37.554Z,17.43
2022-09-14T06:27:09.118Z,17.50
2022-09-14T06:29:37.440Z,17.60
2022-09-14T06:32:05.951Z,17.75
2022-09-14T06:34:34.356Z,17.93
2022-09-14T06:37:02.807Z,18.10
2022-09-14T06:39:31.814Z,18.25
2022-09-14T06:42:00.046Z,18.38
2022-09-14T06:44:30.417Z,18.53
2022-09-14T06:46:58.711Z,18.69
2022-09-14T06:49:26.942Z,18.84
2022-09-14T06:51:57.610Z,18.98
2022-09-14T06:54:25.898Z,19.14
2022-09-14T06:56:54.248Z,19.30
2022-09-14T06:59:22.581Z,19.48
2022-09-14T07:01:51.350Z,19.67
2022-09-14T07:04:19.656Z,19.85
2022-09-14T07:06:50.052Z,20.08
2022-09-14T07:09:20.403Z,20.31
2022-09-14T07:11:49.441Z,20.50
2022-09-14T07:14:17.768Z,20.63
2022-09-14T07:16:46.093Z,20.73
2022-09-14T07:19:15.275Z,20.83
2022-09-14T07:21:45.859Z,20.93
2022-09-14T07:24:15.130Z,21.07
2022-09-14T07:26:44.339Z,21.24
2022-09-14T07:29:17.398Z,21.37
2022-09-14T07:31:49.944Z,21.46
2022-09-14T07:34:19.280Z,21.51
2022-09-14T07:36:47.650Z,21.59
2022-09-14T07:39:18.054Z,21.68
2022-09-14T07:41:47.087Z,21.73
2022-09-14T07:44:17.560Z,21.82
2022-09-14T07:46:46.923Z,21.91
2022-09-14T07:49:16.540Z,22.00
2022-09-14T07:51:45.792Z,22.05
2022-09-14T07:54:16.677Z,22.07
2022-09-14T07:56:46.174Z,22.14
2022-09-14T07:59:35.162Z,22.22
2022-09-14T08:02:07.500Z,22.36
2022-09-14T08:04:36.981Z,22.48
2022-09-14T08:07:06.680Z,22.58
2022-09-14T08:09:35.200Z,22.62
2022-09-14T08:12:06.036Z,22.61
2022-09-14T08:14:34.518Z,22.58
2022-09-14T08:17:03.431Z,22.53
2022-09-14T08:19:31.599Z,22.47
2022-09-14T08:21:59.783Z,22.45
2022-09-14T08:24:28.046Z,22.45
2022-09-14T08:26:56.396Z,22.43
2022-09-14T08:29:24.659Z,22.40
2022-09-14T08:31:53.396Z,22.34
2022-09-14T08:34:21.826Z,22.31
2022-09-14T08:36:50.346Z,22.27
2022-09-14T08:39:18.602Z,22.27
2022-09-14T08:41:59.692Z,22.29
2022-09-14T08:44:31.891Z,22.35
2022-09-14T08:47:00.167Z,22.42
2022-09-14T08:49:48.699Z,22.49
2022-09-14T08:52:31.467Z,22.56
2022-09-14T08:55:02.118Z,22.65
2022-09-14T08:57:44.521Z,22.74
2022-09-14T09:00:21.098Z,22.73
2022-09-14T09:02:55.217Z,22.77
2022-09-14T09:06:02.714Z,22.83
2022-09-14T09:08:43.723Z,22.90
2022-09-14T09:11:19.923Z,22.87
2022-09-14T09:13:51.441Z,22.94
2022-09-14T09:16:24.405Z,23.05
2022-09-14T09:18:59.662Z,23.21
2022-09-14T09:21:35.815Z,23.34
2022-09-14T09:24:37.305Z,23.47
2022-09-14T09:27:14.550Z,23.64
2022-09-14T09:29:44.272Z,23.80
2022-09-14T09:32:19.734Z,23.92
2022-09-14T09:35:17.368Z,23.98
2022-09-14T09:37:55.519Z,24.00
2022-09-14T09:40:38.151Z,24.05
2022-09-14T09:43:10.185Z,24.17
2022-09-14T09:45:52.184Z,24.35
2022-09-14T09:48:24.752Z,24.59
2022-09-14T09:51:02.114Z,24.73
2022-09-14T09:53:33.639Z,24.86
2022-09-14T09:56:03.038Z,24.97
2022-09-14T09:58:31.369Z,25.12
2022-09-14T10:01:12.102Z,25.19
2022-09-14T10:03:43.358Z,25.29
2022-09-14T10:06:14.978Z,25.40
2022-09-14T10:08:47.785Z,25.49
2022-09-14T10:11:36.917Z,25.59
2022-09-14T10:14:19.320Z,25.73
2022-09-14T10:16:48.328Z,26.02
2022-09-14T10:19:26.236Z,26.23
2022-09-14T10:22:26.653Z,26.40
2022-09-14T10:24:57.333Z,26.45
2022-09-14T10:27:49.126Z,26.31
2022-09-14T10:30:23.747Z,26.13
2022-09-14T10:32:58.171Z,25.84
2022-09-14T10:35:40.200Z,25.62
2022-09-14T10:38:24.921Z,25.53
2022-09-14T10:41:16.597Z,25.58
2022-09-14T10:44:07.863Z,25.73
2022-09-14T10:47:10.054Z,25.90
2022-09-14T10:50:11.701Z,26.07
2022-09-14T10:52:49.239Z,26.46
2022-09-14T10:55:44.119Z,26.63
2022-09-14T10:58:24.410Z,26.76
2022-09-14T11:01:18.354Z,26.75
2022-09-14T11:03:59.155Z,26.68
2022-09-14T11:06:46.423Z,26.48
2022-09-14T11:09:40.711Z,26.26
2022-09-14T11:12:09.072Z,25.96
2022-09-14T11:15:00.863Z,25.73
2022-09-14T11:18:20.521Z,25.51
2022-09-14T11:21:16.649Z,25.29
2022-09-14T11:24:12.246Z,25.10
2022-09-14T11:26:59.207Z,24.89
2022-09-14T11:29:36.342Z,24.77
2022-09-14T11:32:21.483Z,24.67
2022-09-14T11:35:14.485Z,24.55
2022-09-14T11:37:49.417Z,24.45
2022-09-14T11:40:55.751Z,24.34
2022-09-14T11:43:31.490Z,24.20
2022-09-14T11:46:38.766Z,24.13
2022-09-14T11:49:16.181Z,24.03
2022-09-14T11:51:54.702Z,23.91
2022-09-14T11:54:24.812Z,23.76
2022-09-14T11:57:00.613Z,23.62
2022-09-14T11:59:37.970Z,23.47
2022-09-14T12:02:27.919Z,23.33
2022-09-14T12:05:08.558Z,23.20
2022-09-14T12:07:43.979Z,23.09
2022-09-14T12:10:19.216Z,22.98
2022-09-14T12:13:14.066Z,22.90
2022-09-14T12:15:42.609Z,22.84
2022-09-14T12:18:10.865Z,22.80
2022-09-14T12:21:09.486Z,22.76
2022-09-14T12:23:37.749Z,22.75
2022-09-14T12:26:05.923Z,22.76
2022-09-14T12:28:35.335Z,22.75
2022-09-14T12:31:03.621Z,22.69
2022-09-14T12:33:34.431Z,22.59
2022-09-14T12:36:05.604Z,22.49
2022-09-14T12:38:42.704Z,22.42
2022-09-14T12:41:10.813Z,22.32
2022-09-14T12:43:42.041Z,22.21
2022-09-14T12:46:21.329Z,22.09
2022-09-14T12:48:59.173Z,21.97
2022-09-14T12:51:28.373Z,21.87
2022-09-14T12:54:03.545Z,21.76
2022-09-14T12:56:43.749Z,21.63
2022-09-14T12:59:37.442Z,21.53
2022-09-14T13:02:20.750Z,21.45
2022-09-14T13:04:54.514Z,21.36
2022-09-14T13:07:32.402Z,21.28
2022-09-14T13:10:03.132Z,21.18
2022-09-14T13:12:34.371Z,21.07
2022-09-14T13:15:25.882Z,21.00
2022-09-14T13:18:24.956Z,20.93
2022-09-14T13:20:58.830Z,20.85
2022-09-14T13:23:41.676Z,20.81
2022-09-14T13:26:23.519Z,20.74
2022-09-14T13:28:53.970Z,20.68
2022-09-14T13:31:35.688Z,20.63
2022-09-14T13:34:05.588Z,20.58
2022-09-14T13:36:37.155Z,20.52
2022-09-14T13:39:17.865Z,20.48
2022-09-14T13:41:46.343Z,20.42
2022-09-14T13:44:15.055Z,20.36
2022-09-14T13:46:43.555Z,20.32
2022-09-14T13:49:13.423Z,20.28
2022-09-14T13:51:41.578Z,20.23
2022-09-14T13:54:29.937Z,20.15
2022-09-14T13:57:27.925Z,20.07
2022-09-14T14:00:15.006Z,20.00
2022-09-14T14:03:01.110Z,19.93
2022-09-14T14:05:34.342Z,19.88
2022-09-14T14:08:05.007Z,19.84
2022-09-14T14:10:46.619Z,19.79
2022-09-14T14:13:25.759Z,19.72
2022-09-14T14:15:54.499Z,19.64
2022-09-14T14:18:41.635Z,19.60
2022-09-14T14:21:17.710Z,19.52
2022-09-14T14:24:02.947Z,19.49
2022-09-14T14:26:34.106Z,19.51
2022-09-14T14:29:09.938Z,19.55
2022-09-14T14:31:38.176Z,19.62
2022-09-14T14:34:19.552Z,19.68
2022-09-14T14:36:50.186Z,19.70
2022-09-14T14:39:24.814Z,19.73
2022-09-14T14:41:53.864Z,19.77
2022-09-14T14:44:28.443Z,19.78
2022-09-14T14:46:56.659Z,19.75
2022-09-14T14:49:25.682Z,19.69
2022-09-14T14:51:53.930Z,19.61
2022-09-14T14:54:22.112Z,19.53
2022-09-14T14:56:51.946Z,19.46
2022-09-14T14:59:20.113Z,19.39
2022-09-14T15:01:50.424Z,19.35
2022-09-14T15:04:19.072Z,19.33
2022-09-14T15:06:49.524Z,19.28
2022-09-14T15:09:23.179Z,19.24
2022-09-14T15:12:09.627Z,19.21
2022-09-14T15:14:38.162Z,19.16
2022-09-14T15:17:06.603Z,19.09
2022-09-14T15:19:35.778Z,19.03
2022-09-14T15:22:04.174Z,18.97
2022-09-14T15:24:32.442Z,18.89
2022-09-14T15:27:00.679Z,18.81
2022-09-14T15:29:29.411Z,18.73
2022-09-14T15:31:58.156Z,18.65
2022-09-14T15:34:26.368Z,18.58
2022-09-14T15:36:54.984Z,18.54
2022-09-14T15:39:26.118Z,18.50
2022-09-14T15:41:56.161Z,18.46
2022-09-14T15:44:25.089Z,18.43
2022-09-14T15:46:53.369Z,18.37
2022-09-14T15:49:25.005Z,18.31
2022-09-14T15:51:58.185Z,18.28
2022-09-14T15:54:32.721Z,18.21
2022-09-14T15:57:01.465Z,18.18
2022-09-14T15:59:29.956Z,18.14
2022-09-14T16:01:58.417Z,18.08
2022-09-14T16:04:26.939Z,18.04
2022-09-14T16:06:56.336Z,18.01
2022-09-14T16:09:24.643Z,17.99
2022-09-14T16:11:53.025Z,17.98
2022-09-14T16:14:21.473Z,17.98
2022-09-14T16:16:49.670Z,17.97
2022-09-14T16:19:18.107Z,17.94
2022-09-14T16:21:48.412Z,17.92
2022-09-14T16:24:22.169Z,17.89
2022-09-14T16:26:50.713Z,17.85
2022-09-14T16:29:21.078Z,17.84
2022-09-14T16:31:50.297Z,17.80
2022-09-14T16:34:22.298Z,17.79
2022-09-14T16:36:51.840Z,17.76
2022-09-14T16:39:23.666Z,17.73
2022-09-14T16:41:54.360Z,17.71
2022-09-14T16:44:26.143Z,17.68
2022-09-14T16:46:57.824Z,17.67
2022-09-14T16:49:28.120Z,17.63
2022-09-14T16:52:00.863Z,17.57
2022-09-14T16:54:32.674Z,17.54
2022-09-14T16:57:01.634Z,17.50
2022-09-14T16:59:29.887Z,17.48
2022-09-14T17:01:58.229Z,17.44
2022-09-14T17:04:26.648Z,17.39
2022-09-14T17:06:56.387Z,17.35
2022-09-14T17:09:27.669Z,17.33
2022-09-14T17:11:57.971Z,17.31
2022-09-14T17:14:31.974Z,17.30
2022-09-14T17:17:00.480Z,17.29
2022-09-14T17:19:30.035Z,17.26
2022-09-14T17:21:58.632Z,17.25
2022-09-14T17:24:26.925Z,17.24
2022-09-14T17:27:24.007Z,17.23
2022-09-14T17:29:53.301Z,17.21
2022-09-14T17:32:21.787Z,17.19
2022-09-14T17:34:50.222Z,17.17
2022-09-14T17:37:18.694Z,17.15
2022-09-14T17:39:49.191Z,17.15
2022-09-14T17:42:17.463Z,17.13
2022-09-14T17:44:45.770Z,17.11
2022-09-14T17:47:14.616Z,17.08
2022-09-14T17:49:42.906Z,17.07
2022-09-14T17:52:11.127Z,17.07
2022-09-14T17:54:39.437Z,17.06
2022-09-14T17:57:08.925Z,17.07
2022-09-14T17:59:38.771Z,17.07
2022-09-14T18:02:07.130Z,17.08
2022-09-14T18:04:35.404Z,17.08
2022-09-14T18:07:05.106Z,17.08
2022-09-14T18:09:34.056Z,17.07
2022-09-14T18:12:02.550Z,17.08
2022-09-14T18:14:31.183Z,17.07
2022-09-14T18:17:00.234Z,17.05
2022-09-14T18:19:29.162Z,17.05
2022-09-14T18:21:57.563Z,17.05
2022-09-14T18:24:25.805Z,17.02
2022-09-14T18:26:54.016Z,17.00
2022-09-14T18:29:23.300Z,16.99
2022-09-14T18:31:53.551Z,16.98
2022-09-14T18:34:23.701Z,16.98
2022-09-14T18:36:55.031Z,16.97
2022-09-14T18:39:23.353Z,16.97
2022-09-14T18:41:56.510Z,16.95
2022-09-14T18:44:27.809Z,16.93
2022-09-14T18:46:56.366Z,16.91
2022-09-14T18:49:24.871Z,16.90
2022-09-14T18:51:53.346Z,16.88
2022-09-14T18:54:27.267Z,16.88
2022-09-14T18:56:56.155Z,16.84
2022-09-14T18:59:24.676Z,16.83
2022-09-14T19:01:53.018Z,16.81
2022-09-14T19:04:21.468Z,16.80
2022-09-14T19:06:50.458Z,16.81
2022-09-14T19:09:19.935Z,16.80
2022-09-14T19:11:48.452Z,16.80
2022-09-14T19:14:17.923Z,16.79
2022-09-14T19:16:46.830Z,16.79
2022-09-14T19:19:17.125Z,16.76
2022-09-14T19:21:47.786Z,16.74
2022-09-14T19:24:17.645Z,16.74
2022-09-14T19:26:49.043Z,16.74
2022-09-14T19:29:20.869Z,16.75
2022-09-14T19:31:52.532Z,16.75
2022-09-14T19:34:22.981Z,16.74
2022-09-14T19:36:52.155Z,16.74
2022-09-14T19:39:22.776Z,16.73
2022-09-14T19:41:51.691Z,16.74
2022-09-14T19:44:22.501Z,16.72
2022-09-14T19:46:51.258Z,16.70
2022-09-14T19:49:23.014Z,16.69
2022-09-14T19:51:52.820Z,16.69
2022-09-14T19:54:21.201Z,16.69
2022-09-14T19:56:49.695Z,16.68
2022-09-14T19:59:20.701Z,16.68
2022-09-14T20:01:49.875Z,16.68
2022-09-14T20:04:18.742Z,16.67
2022-09-14T20:06:48.258Z,16.66
2022-09-14T20:09:19.804Z,16.64
2022-09-14T20:11:51.207Z,16.63
2022-09-14T20:14:23.361Z,16.62
2022-09-14T20:16:54.782Z,16.61
2022-09-14T20:19:26.213Z,16.60
2022-09-14T20:21:55.669Z,16.60
2022-09-14T20:24:27.174Z,16.59
2022-09-14T20:26:59.769Z,16.58
2022-09-14T20:29:31.184Z,16.56
2022-09-14T20:32:00.288Z,16.53
2022-09-14T20:34:32.049Z,16.51
2022-09-14T20:37:00.760Z,16.48
2022-09-14T20:39:29.954Z,16.48
2022-09-14T20:41:58.230Z,16.48
2022-09-14T20:44:26.829Z,16.47
2022-09-14T20:46:57.379Z,16.49
2022-09-14T20:49:30.794Z,16.49
2022-09-14T20:52:03.627Z,16.48
2022-09-14T20:54:32.006Z,16.45
2022-09-14T20:57:04.295Z,16.43
2022-09-14T20:59:33.251Z,16.41
2022-09-14T21:04:49.896Z,16.38
2022-09-14T21:07:18.288Z,16.38
2022-09-14T21:09:46.731Z,16.38
2022-09-14T21:11:12.031Z,16.39
2022-09-14T21:12:16.859Z,16.38
2022-09-14T21:14:48.199Z,16.40
2022-09-14T21:17:18.006Z,16.41
2022-09-14T21:19:46.334Z,16.42
2022-09-14T21:22:14.717Z,16.43
2022-09-14T21:24:43.155Z,16.43
2022-09-14T21:27:11.611Z,16.44
2022-09-14T21:29:39.958Z,16.45
2022-09-14T21:32:09.100Z,16.44
2022-09-14T21:34:37.634Z,16.44
2022-09-14T21:37:06.043Z,16.44
2022-09-14T21:39:34.465Z,16.45
2022-09-14T21:42:06.563Z,16.43
2022-09-14T21:44:37.746Z,16.42
2022-09-14T21:47:07.575Z,16.42
2022-09-14T21:49:36.209Z,16.42
2022-09-14T21:52:05.235Z,16.42
2022-09-14T21:54:35.142Z,16.42
2022-09-14T21:57:29.173Z,16.43
2022-09-14T21:59:57.382Z,16.44
2022-09-14T22:02:25.876Z,16.43
2022-09-14T22:04:54.267Z,16.42
2022-09-14T22:07:22.475Z,16.41
2022-09-14T22:09:52.854Z,16.38
2022-09-14T22:12:25.654Z,16.37
2022-09-14T22:14:53.891Z,16.37
2022-09-14T22:17:22.178Z,16.35
2022-09-14T22:19:55.373Z,16.35
2022-09-14T22:22:23.700Z,16.34
2022-09-14T22:24:51.890Z,16.33
2022-09-14T22:27:20.334Z,16.30
2022-09-14T22:29:48.681Z,16.29
2022-09-14T22:32:16.894Z,16.26
2022-09-14T22:34:49.506Z,16.25
2022-09-14T22:37:18.095Z,16.23
2022-09-14T22:39:47.211Z,16.23
2022-09-14T22:42:16.507Z,16.22
2022-09-14T22:44:44.733Z,16.22
2022-09-14T22:47:13.020Z,16.24
2022-09-14T22:49:41.258Z,16.24
2022-09-14T22:52:09.615Z,16.23
2022-09-14T22:54:37.812Z,16.23
2022-09-14T22:57:06.141Z,16.22
2022-09-14T22:59:34.458Z,16.22
2022-09-14T23:02:02.759Z,16.22
2022-09-14T23:04:31.285Z,16.21
2022-09-14T23:07:00.424Z,16.19
2022-09-14T23:09:30.814Z,16.18
2022-09-14T23:11:59.038Z,16.16
2022-09-14T23:14:28.103Z,16.15
2022-09-14T23:16:56.415Z,16.13
2022-09-14T23:19:24.926Z,16.15
2022-09-14T23:21:53.192Z,16.15
2022-09-14T23:24:21.641Z,16.16
2022-09-14T23:26:49.931Z,16.16
2022-09-14T23:29:18.321Z,16.16
2022-09-14T23:31:46.741Z,16.17
2022-09-14T23:34:15.350Z,16.15
2022-09-14T23:36:43.935Z,16.14
2022-09-14T23:39:12.343Z,16.13
2022-09-14T23:41:40.905Z,16.12
2022-09-14T23:44:11.043Z,16.13
2022-09-14T23:46:39.336Z,16.15
2022-09-14T23:49:08.250Z,16.16
2022-09-14T23:51:37.786Z,16.16
2022-09-14T23:54:08.513Z,16.16
2022-09-14T23:56:38.876Z,16.17
2022-09-14T23:59:10.493Z,16.17
